createdAt,value
2018-03-26T00:00:34.274Z,100860.14
2018-03-26T00:01:37.633Z,100862.52
2018-03-26T00:02:40.969Z,100860.48
2018-03-26T00:03:44.353Z,100864.09
2018-03-26T00:04:47.719Z,100862.47
2018-03-26T00:05:51.030Z,100863.91
2018-03-26T00:06:54.410Z,100865.84
2018-03-26T00:07:57.739Z,100863.72
2018-03-26T00:09:01.099Z,100864.33
2018-03-26T00:10:04.480Z,100867.93
2018-03-26T00:11:07.649Z,100861.91
2018-03-26T00:12:10.688Z,100864.61
2018-03-26T00:13:13.738Z,100869.49
2018-03-26T00:14:17.757Z,100862.44
2018-03-26T00:15:20.820Z,100866.89
2018-03-26T00:16:23.852Z,100866.47
2018-03-26T00:17:26.932Z,100869.55
2018-03-26T00:18:29.980Z,100867.80
2018-03-26T00:19:33.119Z,100870.87
2018-03-26T00:20:36.183Z,100872.99
2018-03-26T00:21:39.256Z,100872.14
2018-03-26T00:22:42.426Z,100867.69
2018-03-26T00:23:45.504Z,100869.87
2018-03-26T00:24:48.640Z,100872.52
2018-03-26T00:25:51.685Z,100875.59
2018-03-26T00:26:55.084Z,100876.50
2018-03-26T00:27:58.134Z,100876.02
2018-03-26T00:29:01.188Z,100874.27
2018-03-26T00:30:04.248Z,100871.53
2018-03-26T00:31:07.296Z,100872.94
2018-03-26T00:32:10.352Z,100874.32
2018-03-26T00:33:13.430Z,100877.97
2018-03-26T00:34:16.517Z,100875.45
2018-03-26T00:35:19.647Z,100877.78
2018-03-26T00:36:22.761Z,100875.27
2018-03-26T00:37:25.828Z,100880.14
2018-03-26T00:38:28.909Z,100877.25
2018-03-26T00:39:31.974Z,100876.51
2018-03-26T00:40:35.069Z,100873.44
2018-03-26T00:41:38.188Z,100872.30
2018-03-26T00:42:41.228Z,100875.13
2018-03-26T00:43:44.332Z,100876.08
2018-03-26T00:44:47.420Z,100874.88
2018-03-26T00:45:50.494Z,100874.56
2018-03-26T00:46:53.579Z,100869.82
2018-03-26T00:47:56.599Z,100877.45
2018-03-26T00:48:59.675Z,100877.08
2018-03-26T00:50:02.751Z,100877.25
2018-03-26T00:51:05.852Z,100877.44
2018-03-26T00:52:08.926Z,100879.42
2018-03-26T00:53:12.018Z,100879.95
2018-03-26T00:54:15.049Z,100880.47
2018-03-26T00:55:18.142Z,100889.88
2018-03-26T00:56:21.207Z,100874.98
2018-03-26T00:57:24.285Z,100880.46
2018-03-26T00:58:27.429Z,100881.49
2018-03-26T00:59:30.490Z,100886.84
2018-03-26T01:00:33.568Z,100882.49
2018-03-26T01:01:36.605Z,100882.25
2018-03-26T01:02:39.801Z,100881.95
2018-03-26T01:03:42.903Z,100883.85
2018-03-26T01:04:45.956Z,100884.80
2018-03-26T01:05:49.032Z,100881.81
2018-03-26T01:06:52.165Z,100888.11
2018-03-26T01:07:55.207Z,100887.81
2018-03-26T01:08:58.275Z,100887.44
2018-03-26T01:10:01.312Z,100888.89
2018-03-26T01:11:04.394Z,100890.73
2018-03-26T01:12:07.524Z,100889.04
2018-03-26T01:13:10.608Z,100888.37
2018-03-26T01:14:13.672Z,100887.98
2018-03-26T01:15:16.774Z,100885.47
2018-03-26T01:16:19.845Z,100889.55
2018-03-26T01:17:22.920Z,100889.20
2018-03-26T01:18:25.988Z,100887.94
2018-03-26T01:19:29.158Z,100895.12
2018-03-26T01:20:32.195Z,100896.06
2018-03-26T01:21:35.239Z,100907.17
2018-03-26T01:22:38.407Z,100907.22
2018-03-26T01:23:41.439Z,100908.16
2018-03-26T01:24:44.525Z,100905.18
2018-03-26T01:25:47.600Z,100911.84
2018-03-26T01:26:50.783Z,100915.48
2018-03-26T01:27:53.864Z,100916.00
2018-03-26T01:28:56.949Z,100922.23
2018-03-26T01:30:00.017Z,100922.37
2018-03-26T01:31:03.099Z,100933.91
2018-03-26T01:32:06.112Z,100927.41
2018-03-26T01:33:09.215Z,100930.16
2018-03-26T01:34:12.313Z,100929.35
2018-03-26T01:35:15.444Z,100930.00
2018-03-26T01:36:18.521Z,100928.80
2018-03-26T01:37:21.620Z,100936.38
2018-03-26T01:38:24.684Z,100936.47
2018-03-26T01:39:27.739Z,100936.59
2018-03-26T01:40:30.836Z,100938.44
2018-03-26T01:41:34.224Z,100935.06
2018-03-26T01:42:37.263Z,100938.66
2018-03-26T01:43:40.373Z,100941.35
2018-03-26T01:44:43.454Z,100943.23
2018-03-26T01:45:46.545Z,100941.05
2018-03-26T01:46:49.588Z,100935.85
2018-03-26T01:47:52.654Z,100944.30
2018-03-26T01:48:55.767Z,100940.38
2018-03-26T01:49:58.807Z,100948.41
2018-03-26T01:51:01.879Z,100948.48
2018-03-26T01:52:04.930Z,100958.65
2018-03-26T01:53:08.010Z,100951.23
2018-03-26T01:54:11.172Z,100956.05
2018-03-26T01:55:14.277Z,100952.98
2018-03-26T01:56:17.323Z,100951.23
2018-03-26T01:57:20.396Z,100957.75
2018-03-26T01:58:23.472Z,100953.78
2018-03-26T01:59:26.545Z,100954.17
2018-03-26T02:00:29.581Z,100956.78
2018-03-26T02:01:32.657Z,100958.09
2018-03-26T02:02:35.695Z,100958.95
2018-03-26T02:03:38.742Z,100956.73
2018-03-26T02:04:41.806Z,100958.95
2018-03-26T02:05:44.840Z,100957.62
2018-03-26T02:06:47.894Z,100960.70
2018-03-26T02:07:50.961Z,100962.40
2018-03-26T02:08:54.050Z,100963.30
2018-03-26T02:09:57.134Z,100962.87
2018-03-26T02:11:00.147Z,100963.44
2018-03-26T02:12:03.214Z,100967.48
2018-03-26T02:13:06.247Z,100968.73
2018-03-26T02:14:09.287Z,100965.61
2018-03-26T02:15:12.366Z,100967.02
2018-03-26T02:16:17.048Z,100962.54
2018-03-26T02:17:20.102Z,100962.62
2018-03-26T02:18:23.130Z,100970.66
2018-03-26T02:19:26.223Z,100968.00
2018-03-26T02:20:29.380Z,100970.27
2018-03-26T02:21:32.412Z,100970.35
2018-03-26T02:22:35.452Z,100974.37
2018-03-26T02:23:38.562Z,100973.98
2018-03-26T02:24:41.621Z,100978.91
2018-03-26T02:25:44.717Z,100979.87
2018-03-26T02:26:47.798Z,100979.03
2018-03-26T02:27:51.857Z,100978.30
2018-03-26T02:28:54.903Z,100978.34
2018-03-26T02:29:57.968Z,100978.44
2018-03-26T02:31:01.064Z,100974.52
2018-03-26T02:32:04.115Z,100973.27
2018-03-26T02:33:07.147Z,100979.03
2018-03-26T02:34:10.203Z,100976.77
2018-03-26T02:35:13.259Z,100979.30
2018-03-26T02:36:16.398Z,100981.42
2018-03-26T02:37:19.435Z,100976.00
2018-03-26T02:38:22.497Z,100978.60
2018-03-26T02:39:25.515Z,100974.59
2018-03-26T02:40:28.552Z,100974.54
2018-03-26T02:41:31.610Z,100981.97
2018-03-26T02:42:34.717Z,100979.41
2018-03-26T02:43:38.374Z,100979.45
2018-03-26T02:44:41.413Z,100981.72
2018-03-26T02:45:44.476Z,100988.80
2018-03-26T02:46:47.547Z,100988.38
2018-03-26T02:47:50.603Z,100987.95
2018-03-26T02:48:53.648Z,100983.59
2018-03-26T02:49:56.693Z,100989.28
2018-03-26T02:50:59.745Z,100989.28
2018-03-26T02:52:02.831Z,100989.19
2018-03-26T02:53:05.852Z,100989.66
2018-03-26T02:54:08.919Z,100987.86
2018-03-26T02:55:11.983Z,100996.66
2018-03-26T02:56:15.056Z,100992.73
2018-03-26T02:57:18.213Z,100993.11
2018-03-26T02:58:21.244Z,100993.45
2018-03-26T02:59:24.276Z,100989.87
2018-03-26T03:00:27.299Z,100988.02
2018-03-26T03:01:30.347Z,100994.59
2018-03-26T03:02:33.427Z,100988.45
2018-03-26T03:03:36.523Z,100994.22
2018-03-26T03:04:39.639Z,100996.39
2018-03-26T03:05:42.674Z,100998.95
2018-03-26T03:06:45.772Z,100999.94
2018-03-26T03:07:48.837Z,101002.63
2018-03-26T03:08:51.895Z,101004.80
2018-03-26T03:09:54.967Z,100999.08
2018-03-26T03:10:58.008Z,100992.47
2018-03-26T03:12:01.078Z,101000.88
2018-03-26T03:13:04.115Z,100996.48
2018-03-26T03:14:07.165Z,101001.34
2018-03-26T03:15:10.248Z,100995.63
2018-03-26T03:16:13.289Z,101000.50
2018-03-26T03:17:17.833Z,101003.27
2018-03-26T03:18:20.911Z,101004.64
2018-03-26T03:19:23.941Z,100999.39
2018-03-26T03:20:27.032Z,100996.31
2018-03-26T03:21:30.076Z,101000.41
2018-03-26T03:22:33.116Z,101002.68
2018-03-26T03:23:36.173Z,101001.83
2018-03-26T03:24:39.218Z,101003.23
2018-03-26T03:25:42.248Z,101002.84
2018-03-26T03:26:45.312Z,101003.36
2018-03-26T03:27:48.336Z,101008.78
2018-03-26T03:28:51.398Z,101008.83
2018-03-26T03:29:54.445Z,101015.06
2018-03-26T03:30:57.530Z,101016.08
2018-03-26T03:32:00.599Z,101015.61
2018-03-26T03:33:03.631Z,101016.55
2018-03-26T03:34:06.735Z,101013.91
2018-03-26T03:35:09.800Z,101020.52
2018-03-26T03:36:12.828Z,101015.66
2018-03-26T03:37:15.933Z,101016.94
2018-03-26T03:38:18.967Z,101019.92
2018-03-26T03:39:22.022Z,101018.98
2018-03-26T03:40:25.142Z,101020.83
2018-03-26T03:41:28.208Z,101023.55
2018-03-26T03:42:31.239Z,101019.45
2018-03-26T03:43:34.397Z,101013.73
2018-03-26T03:44:37.456Z,101016.34
2018-03-26T03:45:40.488Z,101018.94
2018-03-26T03:46:43.557Z,101022.02
2018-03-26T03:48:55.856Z,101015.06
2018-03-26T03:49:58.940Z,101016.81
2018-03-26T03:51:02.027Z,101014.59
2018-03-26T03:52:05.110Z,101014.12
2018-03-26T03:53:08.118Z,101017.66
2018-03-26T03:54:11.199Z,101022.48
2018-03-26T03:55:14.244Z,101014.64
2018-03-26T03:56:17.283Z,101015.53
2018-03-26T03:57:20.332Z,101020.00
2018-03-26T03:58:23.363Z,101014.42
2018-03-26T03:59:26.449Z,101019.45
2018-03-26T04:00:29.514Z,101015.61
2018-03-26T04:01:32.641Z,101021.59
2018-03-26T04:02:35.721Z,101025.27
2018-03-26T04:03:38.760Z,101031.27
2018-03-26T04:04:41.788Z,101031.41
2018-03-26T04:05:44.858Z,101032.94
2018-03-26T04:06:47.934Z,101027.13
2018-03-26T04:07:50.980Z,101032.20
2018-03-26T04:08:54.028Z,101031.13
2018-03-26T04:09:57.928Z,101043.23
2018-03-26T04:11:01.000Z,101035.94
2018-03-26T04:12:04.050Z,101034.40
2018-03-26T04:13:07.120Z,101030.26
2018-03-26T04:14:10.178Z,101031.67
2018-03-26T04:15:13.215Z,101027.87
2018-03-26T04:16:16.363Z,101033.31
2018-03-26T04:17:19.388Z,101033.83
2018-03-26T04:18:22.429Z,101041.88
2018-03-26T04:19:25.487Z,101040.64
2018-03-26T04:20:28.580Z,101039.91
2018-03-26T04:21:31.644Z,101042.17
2018-03-26T04:22:34.682Z,101043.16
2018-03-26T04:23:37.798Z,101044.13
2018-03-26T04:24:40.818Z,101046.08
2018-03-26T04:25:43.989Z,101047.06
2018-03-26T04:26:47.043Z,101048.50
2018-03-26T04:27:50.092Z,101051.61
2018-03-26T04:28:53.146Z,101057.87
2018-03-26T04:29:56.211Z,101052.70
2018-03-26T04:30:59.346Z,101055.86
2018-03-26T04:32:02.490Z,101055.55
2018-03-26T04:33:05.459Z,101058.70
2018-03-26T04:34:08.533Z,101057.08
2018-03-26T04:35:11.563Z,101055.38
2018-03-26T04:36:14.620Z,101053.23
2018-03-26T04:37:17.785Z,101053.83
2018-03-26T04:38:20.840Z,101053.02
2018-03-26T04:39:23.933Z,101055.73
2018-03-26T04:40:26.947Z,101058.03
2018-03-26T04:41:30.834Z,101052.48
2018-03-26T04:42:33.909Z,101054.31
2018-03-26T04:43:37.011Z,101051.78
2018-03-26T04:44:40.068Z,101051.98
2018-03-26T04:45:43.096Z,101049.89
2018-03-26T04:46:46.196Z,101055.72
2018-03-26T04:47:49.313Z,101057.09
2018-03-26T04:48:52.354Z,101062.09
2018-03-26T04:49:55.384Z,101054.69
2018-03-26T04:50:58.510Z,101054.30
2018-03-26T04:52:01.585Z,101049.56
2018-03-26T04:53:04.635Z,101054.92
2018-03-26T04:54:07.703Z,101052.33
2018-03-26T04:55:10.759Z,101057.72
2018-03-26T04:56:13.800Z,101056.44
2018-03-26T04:57:16.895Z,101052.59
2018-03-26T04:58:19.976Z,101050.89
2018-03-26T04:59:23.042Z,101053.15
2018-03-26T05:00:26.084Z,101054.12
2018-03-26T05:01:29.128Z,101052.84
2018-03-26T05:02:32.347Z,101059.91
2018-03-26T05:03:37.230Z,101055.09
2018-03-26T05:04:40.257Z,101047.68
2018-03-26T05:05:43.287Z,101059.98
2018-03-26T05:06:46.426Z,101057.77
2018-03-26T05:07:49.542Z,101057.77
2018-03-26T05:08:52.587Z,101057.30
2018-03-26T05:09:55.649Z,101063.41
2018-03-26T05:10:58.704Z,101064.25
2018-03-26T05:12:01.770Z,101069.89
2018-03-26T05:13:04.805Z,101063.63
2018-03-26T05:14:07.881Z,101067.44
2018-03-26T05:15:10.958Z,101073.45
2018-03-26T05:16:13.978Z,101068.56
2018-03-26T05:17:17.043Z,101071.11
2018-03-26T05:18:22.323Z,101071.55
2018-03-26T05:19:25.434Z,101077.61
2018-03-26T05:20:28.632Z,101074.45
2018-03-26T05:21:31.709Z,101075.73
2018-03-26T05:22:34.757Z,101080.00
2018-03-26T05:23:37.949Z,101085.29
2018-03-26T05:24:41.033Z,101084.82
2018-03-26T05:25:44.095Z,101090.53
2018-03-26T05:26:47.202Z,101088.31
2018-03-26T05:27:50.264Z,101090.95
2018-03-26T05:28:53.342Z,101093.56
2018-03-26T05:29:56.438Z,101094.37
2018-03-26T05:31:00.196Z,101093.56
2018-03-26T05:32:03.289Z,101099.73
2018-03-26T05:33:06.481Z,101104.59
2018-03-26T05:34:09.633Z,101108.98
2018-03-26T05:35:12.749Z,101101.87
2018-03-26T05:36:15.780Z,101097.45
2018-03-26T05:37:19.439Z,101102.69
2018-03-26T05:38:22.531Z,101107.97
2018-03-26T05:39:25.563Z,101105.25
2018-03-26T05:40:28.721Z,101107.34
2018-03-26T05:41:31.775Z,101113.91
2018-03-26T05:42:34.828Z,101112.47
2018-03-26T05:43:37.906Z,101116.35
2018-03-26T05:44:40.955Z,101126.77
2018-03-26T05:45:44.284Z,101122.30
2018-03-26T05:46:47.348Z,101120.08
2018-03-26T05:47:50.467Z,101123.92
2018-03-26T05:48:53.533Z,101121.67
2018-03-26T05:49:56.570Z,101119.88
2018-03-26T05:50:59.730Z,101113.66
2018-03-26T05:52:02.832Z,101121.47
2018-03-26T05:53:05.919Z,101122.23
2018-03-26T05:54:08.950Z,101123.56
2018-03-26T05:55:12.160Z,101122.63
2018-03-26T05:56:15.284Z,101128.34
2018-03-26T05:57:18.323Z,101124.45
2018-03-26T05:58:21.399Z,101127.52
2018-03-26T05:59:24.536Z,101125.28
2018-03-26T06:00:27.570Z,101136.70
2018-03-26T06:01:30.678Z,101135.45
2018-03-26T06:02:33.728Z,101135.92
2018-03-26T06:03:36.827Z,101135.58
2018-03-26T06:04:39.899Z,101135.27
2018-03-26T06:05:42.977Z,101141.91
2018-03-26T06:06:46.047Z,101139.31
2018-03-26T06:07:49.138Z,101138.45
2018-03-26T06:08:52.352Z,101136.23
2018-03-26T06:09:55.404Z,101140.62
2018-03-26T06:10:58.506Z,101139.27
2018-03-26T06:12:01.616Z,101142.80
2018-03-26T06:13:04.681Z,101139.73
2018-03-26T06:14:07.784Z,101150.73
2018-03-26T06:15:10.999Z,101150.69
2018-03-26T06:16:14.037Z,101156.87
2018-03-26T06:17:17.124Z,101157.19
2018-03-26T06:18:20.201Z,101157.61
2018-03-26T06:19:24.632Z,101161.95
2018-03-26T06:20:27.680Z,101152.75
2018-03-26T06:21:30.698Z,101159.27
2018-03-26T06:22:33.777Z,101165.34
2018-03-26T06:23:36.831Z,101171.91
2018-03-26T06:24:39.978Z,101176.30
2018-03-26T06:25:43.069Z,101170.58
2018-03-26T06:26:46.083Z,101176.25
2018-03-26T06:27:49.486Z,101175.71
2018-03-26T06:28:52.545Z,101173.92
2018-03-26T06:29:55.568Z,101171.35
2018-03-26T06:30:58.773Z,101177.96
2018-03-26T06:32:01.869Z,101176.64
2018-03-26T06:33:04.927Z,101183.72
2018-03-26T06:34:07.995Z,101177.53
2018-03-26T06:35:11.069Z,101183.64
2018-03-26T06:36:18.595Z,101185.03
2018-03-26T06:37:32.108Z,101190.36
2018-03-26T06:38:51.087Z,101191.84
2018-03-26T06:39:54.259Z,101192.81
2018-03-26T06:40:57.326Z,101195.30
2018-03-26T06:42:00.362Z,101198.29
2018-03-26T06:43:03.420Z,101194.80
2018-03-26T06:44:06.605Z,101197.44
2018-03-26T06:45:09.629Z,101192.66
2018-03-26T06:46:12.668Z,101194.98
2018-03-26T06:47:15.709Z,101194.13
2018-03-26T06:48:18.820Z,101197.20
2018-03-26T06:49:21.980Z,101198.09
2018-03-26T06:50:25.099Z,101201.12
2018-03-26T06:51:28.200Z,101201.98
2018-03-26T06:52:31.361Z,101197.94
2018-03-26T06:53:34.385Z,101202.30
2018-03-26T06:54:37.566Z,101204.43
2018-03-26T06:55:40.620Z,101202.56
2018-03-26T06:56:43.784Z,101195.06
2018-03-26T06:57:46.792Z,101201.20
2018-03-26T06:58:49.842Z,101199.84
2018-03-26T06:59:53.042Z,101197.58
2018-03-26T07:00:56.122Z,101203.69
2018-03-26T07:01:59.190Z,101210.73
2018-03-26T07:03:02.280Z,101207.14
2018-03-26T07:04:05.376Z,101207.96
2018-03-26T07:05:08.445Z,101211.81
2018-03-26T07:06:11.486Z,101209.86
2018-03-26T07:07:14.533Z,101218.99
2018-03-26T07:08:18.287Z,101218.41
2018-03-26T07:09:21.389Z,101217.44
2018-03-26T07:10:24.448Z,101215.10
2018-03-26T07:11:27.483Z,101217.13
2018-03-26T07:12:30.598Z,101219.95
2018-03-26T07:13:33.649Z,101224.46
2018-03-26T07:14:36.694Z,101220.21
2018-03-26T07:15:39.795Z,101215.23
2018-03-26T07:16:42.928Z,101221.80
2018-03-26T07:17:46.054Z,101219.81
2018-03-26T07:18:49.165Z,101221.61
2018-03-26T07:19:53.062Z,101225.14
2018-03-26T07:20:56.702Z,101228.64
2018-03-26T07:21:59.840Z,101233.03
2018-03-26T07:23:02.871Z,101226.61
2018-03-26T07:24:05.972Z,101227.96
2018-03-26T07:25:08.994Z,101222.85
2018-03-26T07:26:12.126Z,101228.64
2018-03-26T07:27:15.150Z,101226.64
2018-03-26T07:28:18.191Z,101231.14
2018-03-26T07:29:22.276Z,101233.08
2018-03-26T07:30:25.360Z,101233.61
2018-03-26T07:31:28.496Z,101236.01
2018-03-26T07:32:31.540Z,101233.27
2018-03-26T07:33:34.563Z,101238.95
2018-03-26T07:34:37.725Z,101238.88
2018-03-26T07:35:40.731Z,101239.69
2018-03-26T07:36:43.799Z,101244.04
2018-03-26T07:37:46.840Z,101241.27
2018-03-26T07:38:49.906Z,101240.33
2018-03-26T07:39:52.949Z,101246.27
2018-03-26T07:40:55.992Z,101240.02
2018-03-26T07:41:59.167Z,101246.92
2018-03-26T07:43:02.259Z,101244.16
2018-03-26T07:44:05.299Z,101244.03
2018-03-26T07:45:08.419Z,101240.53
2018-03-26T07:46:11.468Z,101240.05
2018-03-26T07:47:14.529Z,101244.80
2018-03-26T07:48:17.650Z,101246.05
2018-03-26T07:49:21.484Z,101247.25
2018-03-26T07:50:24.524Z,101239.27
2018-03-26T07:51:27.596Z,101241.74
2018-03-26T07:52:30.711Z,101242.08
2018-03-26T07:53:33.737Z,101246.36
2018-03-26T07:54:36.908Z,101240.51
2018-03-26T07:55:39.982Z,101246.53
2018-03-26T07:56:43.079Z,101253.46
2018-03-26T07:57:46.148Z,101249.41
2018-03-26T07:58:49.259Z,101251.11
2018-03-26T07:59:52.301Z,101250.13
2018-03-26T08:00:55.386Z,101249.20
2018-03-26T08:01:58.453Z,101260.64
2018-03-26T08:03:01.527Z,101254.48
2018-03-26T08:04:04.632Z,101255.77
2018-03-26T08:05:07.679Z,101254.41
2018-03-26T08:06:10.756Z,101261.02
2018-03-26T08:07:13.804Z,101263.29
2018-03-26T08:08:16.891Z,101264.23
2018-03-26T08:09:20.119Z,101262.91
2018-03-26T08:10:23.149Z,101261.58
2018-03-26T08:11:26.230Z,101266.45
2018-03-26T08:12:29.254Z,101271.32
2018-03-26T08:13:33.173Z,101270.07
2018-03-26T08:14:36.216Z,101271.02
2018-03-26T08:15:39.255Z,101269.77
2018-03-26T08:16:42.325Z,101275.57
2018-03-26T08:17:45.356Z,101276.47
2018-03-26T08:18:48.443Z,101277.37
2018-03-26T08:19:51.497Z,101273.87
2018-03-26T08:20:54.593Z,101278.30
2018-03-26T08:21:57.711Z,101276.12
2018-03-26T08:23:00.933Z,101272.59
2018-03-26T08:24:04.042Z,101278.73
2018-03-26T08:25:07.072Z,101274.34
2018-03-26T08:26:10.115Z,101277.41
2018-03-26T08:27:13.179Z,101280.48
2018-03-26T08:28:16.311Z,101281.38
2018-03-26T08:29:19.734Z,101277.03
2018-03-26T08:30:22.796Z,101280.69
2018-03-26T08:31:26.431Z,101284.66
2018-03-26T08:32:29.512Z,101279.88
2018-03-26T08:33:32.554Z,101276.38
2018-03-26T08:34:35.665Z,101281.80
2018-03-26T08:35:38.728Z,101285.34
2018-03-26T08:36:41.772Z,101278.38
2018-03-26T08:37:44.815Z,101285.89
2018-03-26T08:38:47.861Z,101286.83
2018-03-26T08:39:51.861Z,101280.59
2018-03-26T08:40:54.933Z,101286.32
2018-03-26T08:41:57.965Z,101281.92
2018-03-26T08:43:01.073Z,101285.89
2018-03-26T08:44:04.162Z,101286.70
2018-03-26T08:45:07.235Z,101281.45
2018-03-26T08:46:10.297Z,101283.63
2018-03-26T08:47:13.350Z,101284.48
2018-03-26T08:48:16.425Z,101285.77
2018-03-26T08:49:20.334Z,101283.12
2018-03-26T08:50:23.488Z,101285.72
2018-03-26T08:51:26.444Z,101284.87
2018-03-26T08:52:29.476Z,101281.25
2018-03-26T08:53:32.519Z,101285.65
2018-03-26T08:54:35.585Z,101284.28
2018-03-26T08:55:38.636Z,101282.87
2018-03-26T08:56:41.701Z,101287.62
2018-03-26T08:57:44.780Z,101285.73
2018-03-26T08:58:47.803Z,101292.36
2018-03-26T08:59:50.831Z,101286.09
2018-03-26T09:00:54.733Z,101290.44
2018-03-26T09:01:57.831Z,101289.12
2018-03-26T09:03:00.875Z,101289.12
2018-03-26T09:04:03.957Z,101291.30
2018-03-26T09:05:07.034Z,101286.47
2018-03-26T09:06:10.100Z,101284.25
2018-03-26T09:07:13.155Z,101287.75
2018-03-26T09:08:16.248Z,101278.91
2018-03-26T09:09:19.302Z,101280.66
2018-03-26T09:10:22.368Z,101281.09
2018-03-26T09:11:25.445Z,101284.94
2018-03-26T09:12:28.495Z,101283.10
2018-03-26T09:13:31.593Z,101285.20
2018-03-26T09:14:34.657Z,101283.36
2018-03-26T09:15:37.704Z,101280.25
2018-03-26T09:16:40.771Z,101284.57
2018-03-26T09:17:43.865Z,101285.00
2018-03-26T09:18:46.916Z,101288.50
2018-03-26T09:19:49.962Z,101294.22
2018-03-26T09:20:52.993Z,101288.92
2018-03-26T09:21:56.165Z,101286.28
2018-03-26T09:22:59.225Z,101285.38
2018-03-26T09:24:02.325Z,101290.67
2018-03-26T09:25:05.358Z,101295.89
2018-03-26T09:26:08.411Z,101291.41
2018-03-26T09:27:12.588Z,101294.48
2018-03-26T09:28:15.617Z,101294.48
2018-03-26T09:29:18.653Z,101290.42
2018-03-26T09:30:21.753Z,101287.77
2018-03-26T09:31:24.804Z,101288.19
2018-03-26T09:32:27.906Z,101286.80
2018-03-26T09:33:30.956Z,101286.66
2018-03-26T09:34:35.175Z,101281.24
2018-03-26T09:35:39.888Z,101283.76
2018-03-26T09:36:42.942Z,101282.31
2018-03-26T09:37:46.009Z,101283.97
2018-03-26T09:38:49.058Z,101286.50
2018-03-26T09:39:52.172Z,101286.34
2018-03-26T09:40:55.218Z,101287.53
2018-03-26T09:41:58.275Z,101283.08
2018-03-26T09:43:01.416Z,101286.04
2018-03-26T09:44:04.512Z,101286.89
2018-03-26T09:45:07.564Z,101282.02
2018-03-26T09:46:10.646Z,101282.28
2018-03-26T09:47:13.683Z,101286.30
2018-03-26T09:48:16.750Z,101282.70
2018-03-26T09:49:19.827Z,101277.79
2018-03-26T09:50:22.879Z,101275.44
2018-03-26T09:51:25.938Z,101277.50
2018-03-26T09:52:28.974Z,101278.73
2018-03-26T09:53:32.059Z,101279.47
2018-03-26T09:54:35.219Z,101281.13
2018-03-26T09:55:38.317Z,101281.86
2018-03-26T09:56:41.352Z,101285.19
2018-03-26T09:57:45.224Z,101283.30
2018-03-26T09:58:48.287Z,101282.67
2018-03-26T09:59:51.328Z,101285.19
2018-03-26T10:01:00.070Z,101284.16
2018-03-26T10:02:11.950Z,101282.06
2018-03-26T10:03:14.998Z,101288.61
2018-03-26T10:04:18.129Z,101288.05
2018-03-26T10:05:21.189Z,101283.61
2018-03-26T10:06:24.348Z,101281.29
2018-03-26T10:07:27.421Z,101287.80
2018-03-26T10:08:31.684Z,101284.24
2018-03-26T10:09:34.768Z,101290.83
2018-03-26T10:10:37.809Z,101285.00
2018-03-26T10:11:40.989Z,101285.83
2018-03-26T10:12:44.033Z,101286.11
2018-03-26T10:13:47.088Z,101294.33
2018-03-26T10:14:50.160Z,101293.80
2018-03-26T10:15:53.228Z,101291.03
2018-03-26T10:16:56.299Z,101292.69
2018-03-26T10:17:59.334Z,101293.80
2018-03-26T10:19:02.383Z,101287.47
2018-03-26T10:20:05.441Z,101293.11
2018-03-26T10:21:08.505Z,101293.84
2018-03-26T10:22:11.548Z,101291.44
2018-03-26T10:23:14.612Z,101294.34
2018-03-26T10:24:17.722Z,101295.06
2018-03-26T10:25:21.024Z,101286.55
2018-03-26T10:26:24.047Z,101289.11
2018-03-26T10:27:27.140Z,101285.86
2018-03-26T10:28:30.165Z,101292.39
2018-03-26T10:29:33.204Z,101290.52
2018-03-26T10:30:36.273Z,101288.55
2018-03-26T10:31:39.313Z,101287.42
2018-03-26T10:32:42.382Z,101284.25
2018-03-26T10:33:45.435Z,101289.38
2018-03-26T10:34:48.504Z,101288.39
2018-03-26T10:35:51.569Z,101279.41
2018-03-26T10:36:54.645Z,101287.27
2018-03-26T10:37:57.689Z,101292.39
2018-03-26T10:39:00.724Z,101292.65
2018-03-26T10:40:04.401Z,101288.45
2018-03-26T10:41:07.483Z,101286.08
2018-03-26T10:42:10.572Z,101290.26
2018-03-26T10:43:13.624Z,101284.87
2018-03-26T10:44:16.749Z,101285.08
2018-03-26T10:45:19.817Z,101288.41
2018-03-26T10:46:22.871Z,101291.21
2018-03-26T10:47:25.900Z,101286.53
2018-03-26T10:48:28.940Z,101289.34
2018-03-26T10:49:31.976Z,101284.61
2018-03-26T10:50:35.043Z,101292.64
2018-03-26T10:51:38.166Z,101284.70
2018-03-26T10:52:41.208Z,101291.94
2018-03-26T10:53:46.262Z,101285.41
2018-03-26T10:54:49.307Z,101283.19
2018-03-26T10:55:52.479Z,101288.05
2018-03-26T10:56:55.535Z,101284.97
2018-03-26T10:57:58.666Z,101289.53
2018-03-26T10:59:01.746Z,101289.92
2018-03-26T11:00:04.788Z,101291.39
2018-03-26T11:01:07.830Z,101293.20
2018-03-26T11:02:10.913Z,101292.06
2018-03-26T11:03:13.944Z,101290.08
2018-03-26T11:04:17.012Z,101293.44
2018-03-26T11:05:20.064Z,101287.98
2018-03-26T11:06:23.172Z,101293.20
2018-03-26T11:07:26.277Z,101290.88
2018-03-26T11:08:29.355Z,101286.42
2018-03-26T11:09:32.460Z,101291.98
2018-03-26T11:10:35.529Z,101290.97
2018-03-26T11:11:38.644Z,101289.94
2018-03-26T11:12:41.706Z,101293.45
2018-03-26T11:13:44.816Z,101291.64
2018-03-26T11:14:48.846Z,101292.49
2018-03-26T11:15:51.885Z,101291.16
2018-03-26T11:16:54.928Z,101288.98
2018-03-26T11:17:58.012Z,101287.66
2018-03-26T11:19:01.032Z,101295.10
2018-03-26T11:20:04.106Z,101298.95
2018-03-26T11:21:07.250Z,101294.86
2018-03-26T11:22:10.323Z,101299.62
2018-03-26T11:23:15.001Z,101304.30
2018-03-26T11:24:18.110Z,101299.23
2018-03-26T11:25:21.161Z,101302.93
2018-03-26T11:26:24.238Z,101304.07
2018-03-26T11:27:27.304Z,101305.78
2018-03-26T11:28:30.439Z,101299.80
2018-03-26T11:29:33.463Z,101299.18
2018-03-26T11:30:36.538Z,101297.19
2018-03-26T11:31:40.670Z,101300.51
2018-03-26T11:32:43.745Z,101301.63
2018-03-26T11:33:46.813Z,101302.77
2018-03-26T11:34:49.960Z,101299.88
2018-03-26T11:35:52.996Z,101296.17
2018-03-26T11:36:56.037Z,101300.44
2018-03-26T11:37:59.083Z,101299.28
2018-03-26T11:39:02.155Z,101303.89
2018-03-26T11:40:05.217Z,101301.04
2018-03-26T11:41:08.300Z,101303.03
2018-03-26T11:42:11.333Z,101299.70
2018-03-26T11:43:14.388Z,101301.21
2018-03-26T11:44:17.499Z,101300.06
2018-03-26T11:45:20.724Z,101301.16
2018-03-26T11:46:23.774Z,101300.43
2018-03-26T11:47:26.876Z,101290.39
2018-03-26T11:48:29.895Z,101298.48
2018-03-26T11:49:32.990Z,101300.05
2018-03-26T11:50:36.018Z,101301.08
2018-03-26T11:51:39.043Z,101300.41
2018-03-26T11:52:42.098Z,101295.31
2018-03-26T11:53:45.152Z,101296.45
2018-03-26T11:54:48.249Z,101292.72
2018-03-26T11:55:51.809Z,101292.10
2018-03-26T11:56:54.791Z,101299.41
2018-03-26T11:57:57.837Z,101302.45
2018-03-26T11:59:01.980Z,101298.51
2018-03-26T12:00:05.093Z,101302.45
2018-03-26T12:01:08.201Z,101297.60
2018-03-26T12:02:11.251Z,101294.94